createdAt,value
2023-04-23T00:00:14.694Z,94333.00
2023-04-23T00:01:14.665Z,94335.00
2023-04-23T00:02:14.866Z,94331.00
2023-04-23T00:03:17.540Z,94335.00
2023-04-23T00:04:14.925Z,94333.00
2023-04-23T00:05:14.728Z,94335.00
2023-04-23T00:06:14.635Z,94335.00
2023-04-23T00:07:14.655Z,94337.00
2023-04-23T00:08:14.622Z,94335.00
2023-04-23T00:09:14.655Z,94335.00
2023-04-23T00:10:14.636Z,94333.00
2023-04-23T00:11:14.621Z,94333.00
2023-04-23T00:12:14.647Z,94327.00
2023-04-23T00:13:14.603Z,94331.00
2023-04-23T00:14:14.586Z,94329.00
2023-04-23T00:15:14.553Z,94333.00
2023-04-23T00:16:14.576Z,94333.00
2023-04-23T00:17:14.574Z,94333.00
2023-04-23T00:18:14.540Z,94333.00
2023-04-23T00:19:14.894Z,94331.00
2023-04-23T00:20:14.580Z,94329.00
2023-04-23T00:21:14.541Z,94329.00
2023-04-23T00:22:14.504Z,94325.00
2023-04-23T00:23:14.501Z,94321.00
2023-04-23T00:24:14.526Z,94321.00
2023-04-23T00:25:14.523Z,94321.00
2023-04-23T00:26:14.504Z,94323.00
2023-04-23T00:27:14.609Z,94323.00
2023-04-23T00:28:14.479Z,94321.00
2023-04-23T00:29:14.482Z,94317.00
2023-04-23T00:30:14.494Z,94315.00
2023-04-23T00:31:14.510Z,94317.00
2023-04-23T00:32:14.517Z,94319.00
2023-04-23T00:33:14.436Z,94321.00
2023-04-23T00:34:14.484Z,94323.00
2023-04-23T00:35:14.453Z,94323.00
2023-04-23T00:36:14.433Z,94323.00
2023-04-23T00:37:14.438Z,94321.00
2023-04-23T00:38:14.470Z,94319.00
2023-04-23T00:39:14.407Z,94317.00
2023-04-23T00:40:14.452Z,94321.00
2023-04-23T00:41:14.391Z,94321.00
2023-04-23T00:42:14.402Z,94317.00
2023-04-23T00:43:14.376Z,94317.00
2023-04-23T00:44:14.393Z,94317.00
2023-04-23T00:45:14.387Z,94317.00
2023-04-23T00:46:14.459Z,94319.00
2023-04-23T00:47:14.367Z,94315.00
2023-04-23T00:48:14.370Z,94313.00
2023-04-23T00:49:14.381Z,94311.00
2023-04-23T00:50:14.318Z,94313.00
2023-04-23T00:51:14.334Z,94311.00
2023-04-23T00:52:14.334Z,94315.00
2023-04-23T00:53:14.309Z,94311.00
2023-04-23T00:54:14.312Z,94311.00
2023-04-23T00:55:14.267Z,94309.00
2023-04-23T00:56:14.297Z,94309.00
2023-04-23T00:57:14.305Z,94307.00
2023-04-23T00:58:14.338Z,94305.00
2023-04-23T00:59:14.287Z,94305.00
2023-04-23T01:00:14.311Z,94307.00
2023-04-23T01:01:14.343Z,94305.00
2023-04-23T01:02:14.341Z,94305.00
2023-04-23T01:03:14.365Z,94303.00
2023-04-23T01:04:14.356Z,94305.00
2023-04-23T01:05:14.214Z,94305.00
2023-04-23T01:06:14.212Z,94305.00
2023-04-23T01:07:14.197Z,94307.00
2023-04-23T01:08:14.191Z,94303.00
2023-04-23T01:09:14.261Z,94309.00
2023-04-23T01:10:14.179Z,94309.00
2023-04-23T01:11:14.216Z,94309.00
2023-04-23T01:12:14.213Z,94309.00
2023-04-23T01:13:14.222Z,94307.00
2023-04-23T01:14:14.154Z,94302.00
2023-04-23T01:15:14.157Z,94302.00
2023-04-23T01:16:14.184Z,94302.00
2023-04-23T01:17:14.112Z,94303.00
2023-04-23T01:18:14.143Z,94305.00
2023-04-23T01:19:14.112Z,94303.00
2023-04-23T01:20:14.114Z,94303.00
2023-04-23T01:21:14.123Z,94303.00
2023-04-23T01:22:14.081Z,94303.00
2023-04-23T01:23:14.120Z,94303.00
2023-04-23T01:24:14.078Z,94302.00
2023-04-23T01:25:14.088Z,94303.00
2023-04-23T01:26:14.083Z,94302.00
2023-04-23T01:27:14.065Z,94298.00
2023-04-23T01:28:14.035Z,94302.00
2023-04-23T01:29:14.027Z,94302.00
2023-04-23T01:30:14.035Z,94302.00
2023-04-23T01:31:14.149Z,94300.00
2023-04-23T01:32:14.025Z,94298.00
2023-04-23T01:33:14.035Z,94300.00
2023-04-23T01:34:14.007Z,94300.00
2023-04-23T01:35:14.010Z,94296.00
2023-04-23T01:36:14.018Z,94298.00
2023-04-23T01:37:14.030Z,94296.00
2023-04-23T01:38:14.007Z,94298.00
2023-04-23T01:39:14.003Z,94298.00
2023-04-23T01:40:13.961Z,94300.00
2023-04-23T01:41:13.979Z,94302.00
2023-04-23T01:42:14.033Z,94303.00
2023-04-23T01:43:13.956Z,94305.00
2023-04-23T01:44:13.974Z,94309.00
2023-04-23T01:45:13.924Z,94305.00
2023-04-23T01:46:13.970Z,94307.00
2023-04-23T01:47:13.960Z,94311.00
2023-04-23T01:48:13.922Z,94307.00
2023-04-23T01:49:13.930Z,94309.00
2023-04-23T01:50:13.913Z,94309.00
2023-04-23T01:51:13.909Z,94309.00
2023-04-23T01:52:13.890Z,94311.00
2023-04-23T01:53:13.893Z,94311.00
2023-04-23T01:54:13.868Z,94311.00
2023-04-23T01:55:13.872Z,94311.00
2023-04-23T01:56:13.850Z,94311.00
2023-04-23T01:57:13.869Z,94309.00
2023-04-23T01:58:13.861Z,94309.00
2023-04-23T01:59:13.827Z,94309.00
2023-04-23T02:00:13.845Z,94309.00
2023-04-23T02:01:13.860Z,94309.00
2023-04-23T02:02:14.003Z,94309.00
2023-04-23T02:03:14.068Z,94309.00
2023-04-23T02:04:13.953Z,94309.00
2023-04-23T02:05:13.788Z,94309.00
2023-04-23T02:06:13.817Z,94309.00
2023-04-23T02:07:13.839Z,94309.00
2023-04-23T02:08:13.785Z,94311.00
2023-04-23T02:09:13.739Z,94311.00
2023-04-23T02:10:13.797Z,94311.00
2023-04-23T02:11:13.744Z,94311.00
2023-04-23T02:12:13.736Z,94311.00
2023-04-23T02:13:13.749Z,94313.00
2023-04-23T02:14:13.711Z,94313.00
2023-04-23T02:15:13.722Z,94309.00
2023-04-23T02:16:13.759Z,94309.00
2023-04-23T02:17:13.710Z,94307.00
2023-04-23T02:18:13.721Z,94309.00
2023-04-23T02:19:15.853Z,94307.00
2023-04-23T02:20:13.694Z,94307.00
2023-04-23T02:21:13.674Z,94307.00
2023-04-23T02:22:13.686Z,94307.00
2023-04-23T02:23:13.694Z,94307.00
2023-04-23T02:24:13.654Z,94307.00
2023-04-23T02:25:13.694Z,94303.00
2023-04-23T02:26:13.635Z,94300.00
2023-04-23T02:27:13.643Z,94302.00
2023-04-23T02:28:13.661Z,94302.00
2023-04-23T02:29:13.628Z,94307.00
2023-04-23T02:30:13.671Z,94307.00
2023-04-23T02:31:13.643Z,94300.00
2023-04-23T02:32:13.601Z,94300.00
2023-04-23T02:33:13.641Z,94298.00
2023-04-23T02:34:13.612Z,94294.00
2023-04-23T02:35:13.597Z,94290.00
2023-04-23T02:36:13.579Z,94290.00
2023-04-23T02:37:13.566Z,94288.00
2023-04-23T02:38:13.572Z,94290.00
2023-04-23T02:39:13.587Z,94290.00
2023-04-23T02:40:13.601Z,94294.00
2023-04-23T02:41:13.644Z,94294.00
2023-04-23T02:42:13.621Z,94292.00
2023-04-23T02:43:13.659Z,94292.00
2023-04-23T02:44:13.650Z,94290.00
2023-04-23T02:45:13.634Z,94288.00
2023-04-23T02:46:13.625Z,94290.00
2023-04-23T02:47:13.729Z,94290.00
2023-04-23T02:48:13.692Z,94290.00
2023-04-23T02:49:13.693Z,94288.00
2023-04-23T02:50:13.696Z,94286.00
2023-04-23T02:51:13.668Z,94286.00
2023-04-23T02:52:13.663Z,94282.00
2023-04-23T02:53:13.668Z,94280.00
2023-04-23T02:54:13.684Z,94282.00
2023-04-23T02:55:13.691Z,94282.00
2023-04-23T02:56:13.691Z,94282.00
2023-04-23T02:57:13.666Z,94282.00
2023-04-23T02:58:13.706Z,94280.00
2023-04-23T02:59:13.727Z,94284.00
2023-04-23T03:00:13.724Z,94286.00
2023-04-23T03:01:13.728Z,94288.00
2023-04-23T03:02:13.807Z,94288.00
2023-04-23T03:03:13.890Z,94288.00
2023-04-23T03:04:13.937Z,94286.00
2023-04-23T03:05:13.793Z,94286.00
2023-04-23T03:06:13.807Z,94288.00
2023-04-23T03:07:13.769Z,94286.00
2023-04-23T03:08:13.776Z,94286.00
2023-04-23T03:09:13.834Z,94286.00
2023-04-23T03:10:13.836Z,94288.00
2023-04-23T03:11:13.856Z,94290.00
2023-04-23T03:12:13.833Z,94290.00
2023-04-23T03:13:13.854Z,94292.00
2023-04-23T03:14:13.854Z,94292.00
2023-04-23T03:15:13.854Z,94292.00
2023-04-23T03:16:13.903Z,94292.00
2023-04-23T03:17:13.950Z,94290.00
2023-04-23T03:18:13.879Z,94290.00
2023-04-23T03:19:13.920Z,94290.00
2023-04-23T03:20:13.897Z,94292.00
2023-04-23T03:21:13.906Z,94290.00
2023-04-23T03:22:13.940Z,94294.00
2023-04-23T03:23:13.982Z,94288.00
2023-04-23T03:24:13.985Z,94292.00
2023-04-23T03:25:13.948Z,94296.00
2023-04-23T03:26:13.996Z,94300.00
2023-04-23T03:27:14.003Z,94298.00
2023-04-23T03:28:14.007Z,94300.00
2023-04-23T03:29:14.021Z,94296.00
2023-04-23T03:30:13.978Z,94296.00
2023-04-23T03:31:14.123Z,94296.00
2023-04-23T03:32:14.001Z,94303.00
2023-04-23T03:33:14.036Z,94307.00
2023-04-23T03:34:14.037Z,94309.00
2023-04-23T03:35:14.101Z,94309.00
2023-04-23T03:36:14.147Z,94307.00
2023-04-23T03:37:14.118Z,94305.00
2023-04-23T03:38:14.095Z,94303.00
2023-04-23T03:39:14.121Z,94303.00
2023-04-23T03:40:14.147Z,94307.00
2023-04-23T03:41:14.142Z,94305.00
2023-04-23T03:42:14.146Z,94309.00
2023-04-23T03:43:14.154Z,94309.00
2023-04-23T03:44:14.172Z,94307.00
2023-04-23T03:45:14.228Z,94305.00
2023-04-23T03:46:14.289Z,94307.00
2023-04-23T03:47:14.238Z,94309.00
2023-04-23T03:48:14.256Z,94315.00
2023-04-23T03:49:14.269Z,94317.00
2023-04-23T03:50:14.295Z,94315.00
2023-04-23T03:51:14.272Z,94313.00
2023-04-23T03:52:14.278Z,94315.00
2023-04-23T03:53:14.282Z,94317.00
2023-04-23T03:54:14.290Z,94315.00
2023-04-23T03:55:14.295Z,94319.00
2023-04-23T03:56:14.427Z,94319.00
2023-04-23T03:57:14.374Z,94321.00
2023-04-23T03:58:14.358Z,94321.00
2023-04-23T03:59:14.362Z,94325.00
2023-04-23T04:00:14.375Z,94323.00
2023-04-23T04:01:14.387Z,94323.00
2023-04-23T04:02:14.469Z,94323.00
2023-04-23T04:03:14.590Z,94321.00
2023-04-23T04:04:14.621Z,94317.00
2023-04-23T04:05:14.631Z,94319.00
2023-04-23T04:06:14.468Z,94317.00
2023-04-23T04:07:14.478Z,94313.00
2023-04-23T04:08:14.524Z,94313.00
2023-04-23T04:09:14.544Z,94315.00
2023-04-23T04:10:14.557Z,94319.00
2023-04-23T04:11:14.568Z,94319.00
2023-04-23T04:12:14.554Z,94323.00
2023-04-23T04:13:14.610Z,94325.00
2023-04-23T04:14:14.632Z,94327.00
2023-04-23T04:15:14.654Z,94325.00
2023-04-23T04:16:14.679Z,94327.00
2023-04-23T04:17:14.614Z,94327.00
2023-04-23T04:18:14.651Z,94329.00
2023-04-23T04:19:14.677Z,94329.00
2023-04-23T04:20:14.715Z,94331.00
2023-04-23T04:21:14.673Z,94329.00
2023-04-23T04:22:14.722Z,94331.00
2023-04-23T04:23:14.730Z,94335.00
2023-04-23T04:24:14.800Z,94337.00
2023-04-23T04:25:14.816Z,94337.00
2023-04-23T04:26:14.804Z,94339.00
2023-04-23T04:27:14.841Z,94341.00
2023-04-23T04:28:14.808Z,94339.00
2023-04-23T04:29:14.826Z,94337.00
2023-04-23T04:30:14.852Z,94335.00
2023-04-23T04:31:14.869Z,94335.00
2023-04-23T04:32:14.903Z,94331.00
2023-04-23T04:33:14.904Z,94331.00
2023-04-23T04:34:14.937Z,94329.00
2023-04-23T04:35:14.929Z,94327.00
2023-04-23T04:36:14.933Z,94327.00
2023-04-23T04:37:14.930Z,94327.00
2023-04-23T04:38:14.941Z,94327.00
2023-04-23T04:39:14.992Z,94327.00
2023-04-23T04:40:15.001Z,94327.00
2023-04-23T04:41:14.994Z,94325.00
2023-04-23T04:42:15.023Z,94327.00
2023-04-23T04:43:15.060Z,94327.00
2023-04-23T04:44:15.079Z,94329.00
2023-04-23T04:45:15.076Z,94327.00
2023-04-23T04:46:15.173Z,94327.00
2023-04-23T04:47:15.104Z,94327.00
2023-04-23T04:48:15.158Z,94327.00
2023-04-23T04:49:15.167Z,94327.00
2023-04-23T04:50:15.170Z,94331.00
2023-04-23T04:51:15.180Z,94331.00
2023-04-23T04:52:15.182Z,94329.00
2023-04-23T04:53:15.244Z,94327.00
2023-04-23T04:54:15.247Z,94327.00
2023-04-23T04:55:15.208Z,94329.00
2023-04-23T04:56:15.254Z,94325.00
2023-04-23T04:57:15.279Z,94323.00
2023-04-23T04:58:15.267Z,94323.00
2023-04-23T04:59:15.292Z,94323.00
2023-04-23T05:00:15.419Z,94323.00
2023-04-23T05:01:15.402Z,94323.00
2023-04-23T05:02:15.402Z,94323.00
2023-04-23T05:03:15.470Z,94325.00
2023-04-23T05:04:15.522Z,94323.00
2023-04-23T05:05:15.421Z,94323.00
2023-04-23T05:06:15.436Z,94323.00
2023-04-23T05:07:15.509Z,94319.00
2023-04-23T05:08:15.450Z,94319.00
2023-04-23T05:09:15.511Z,94317.00
2023-04-23T05:10:15.480Z,94319.00
2023-04-23T05:11:15.513Z,94317.00
2023-04-23T05:12:15.522Z,94319.00
2023-04-23T05:13:15.534Z,94317.00
2023-04-23T05:14:15.581Z,94319.00
2023-04-23T05:15:15.596Z,94319.00
2023-04-23T05:16:15.625Z,94319.00
2023-04-23T05:17:15.669Z,94321.00
2023-04-23T05:18:15.646Z,94321.00
2023-04-23T05:19:15.675Z,94321.00
2023-04-23T05:20:15.724Z,94321.00
2023-04-23T05:21:15.745Z,94321.00
2023-04-23T05:22:15.765Z,94319.00
2023-04-23T05:23:15.749Z,94323.00
2023-04-23T05:24:15.771Z,94321.00
2023-04-23T05:25:15.812Z,94323.00
2023-04-23T05:26:15.826Z,94325.00
2023-04-23T05:27:15.837Z,94323.00
2023-04-23T05:28:15.922Z,94327.00
2023-04-23T05:29:16.010Z,94329.00
2023-04-23T05:30:15.914Z,94333.00
2023-04-23T05:31:15.956Z,94329.00
2023-04-23T05:32:16.186Z,94331.00
2023-04-23T05:33:15.971Z,94329.00
2023-04-23T05:34:16.049Z,94331.00
2023-04-23T05:35:16.033Z,94333.00
2023-04-23T05:36:16.039Z,94333.00
2023-04-23T05:37:16.099Z,94337.00
2023-04-23T05:38:16.112Z,94337.00
2023-04-23T05:39:16.154Z,94335.00
2023-04-23T05:40:16.173Z,94337.00
2023-04-23T05:41:16.232Z,94335.00
2023-04-23T05:42:16.225Z,94335.00
2023-04-23T05:43:16.241Z,94335.00
2023-04-23T05:44:16.234Z,94337.00
2023-04-23T05:45:16.302Z,94335.00
2023-04-23T05:46:16.286Z,94339.00
2023-04-23T05:47:16.346Z,94339.00
2023-04-23T05:48:16.310Z,94339.00
2023-04-23T05:49:16.382Z,94339.00
2023-04-23T05:50:16.412Z,94341.00
2023-04-23T05:51:16.380Z,94341.00
2023-04-23T05:52:16.432Z,94339.00
2023-04-23T05:53:16.446Z,94339.00
2023-04-23T05:54:16.468Z,94339.00
2023-04-23T05:55:16.569Z,94339.00
2023-04-23T05:56:16.552Z,94341.00
2023-04-23T05:57:16.540Z,94339.00
2023-04-23T05:58:16.534Z,94339.00
2023-04-23T05:59:16.600Z,94339.00
2023-04-23T06:00:16.670Z,94341.00
2023-04-23T06:01:16.655Z,94341.00
2023-04-23T06:02:16.770Z,94341.00
2023-04-23T06:03:17.854Z,94343.00
2023-04-23T06:04:16.872Z,94343.00
2023-04-23T06:05:16.971Z,94347.00
2023-04-23T06:06:16.747Z,94349.00
2023-04-23T06:07:16.764Z,94350.00
2023-04-23T06:08:16.811Z,94352.00
2023-04-23T06:09:16.812Z,94350.00
2023-04-23T06:10:16.886Z,94350.00
2023-04-23T06:11:16.886Z,94350.00
2023-04-23T06:12:16.895Z,94349.00
2023-04-23T06:13:16.890Z,94350.00
2023-04-23T06:14:16.947Z,94349.00
2023-04-23T06:15:16.965Z,94349.00
2023-04-23T06:16:17.010Z,94349.00
2023-04-23T06:17:16.970Z,94349.00
2023-04-23T06:18:16.997Z,94349.00
2023-04-23T06:19:17.034Z,94349.00
2023-04-23T06:20:17.044Z,94349.00
2023-04-23T06:21:18.166Z,94347.00
2023-04-23T06:22:17.055Z,94347.00
2023-04-23T06:23:17.144Z,94347.00
2023-04-23T06:24:17.201Z,94347.00
2023-04-23T06:25:17.137Z,94350.00
2023-04-23T06:26:17.127Z,94349.00
2023-04-23T06:27:17.195Z,94349.00
2023-04-23T06:28:17.158Z,94347.00
2023-04-23T06:29:17.205Z,94347.00
2023-04-23T06:30:17.190Z,94345.00
2023-04-23T06:31:17.261Z,94347.00
2023-04-23T06:32:19.790Z,94347.00
2023-04-23T06:33:17.232Z,94347.00
2023-04-23T06:34:17.240Z,94347.00
2023-04-23T06:35:17.255Z,94345.00
2023-04-23T06:36:17.258Z,94343.00
2023-04-23T06:37:17.177Z,94343.00
2023-04-23T06:38:17.218Z,94345.00
2023-04-23T06:39:17.218Z,94345.00
2023-04-23T06:40:17.171Z,94341.00
2023-04-23T06:41:17.148Z,94343.00
2023-04-23T06:42:17.239Z,94343.00
2023-04-23T06:43:17.213Z,94345.00
2023-04-23T06:44:17.207Z,94343.00
2023-04-23T06:45:17.140Z,94345.00
2023-04-23T06:46:17.161Z,94345.00
2023-04-23T06:47:17.111Z,94345.00
2023-04-23T06:48:17.230Z,94343.00
2023-04-23T06:49:17.100Z,94343.00
2023-04-23T06:50:17.106Z,94343.00
2023-04-23T06:51:17.089Z,94341.00
2023-04-23T06:52:17.097Z,94341.00
2023-04-23T06:53:17.132Z,94341.00
2023-04-23T06:54:17.106Z,94337.00
2023-04-23T06:55:17.069Z,94337.00
2023-04-23T06:56:17.075Z,94337.00
2023-04-23T06:57:17.088Z,94335.00
2023-04-23T06:58:17.093Z,94333.00
2023-04-23T06:59:17.044Z,94335.00
2023-04-23T07:00:17.041Z,94333.00
2023-04-23T07:01:17.131Z,94333.00
2023-04-23T07:02:17.111Z,94333.00
2023-04-23T07:03:17.042Z,94335.00
2023-04-23T07:04:17.102Z,94331.00
2023-04-23T07:05:17.050Z,94333.00
2023-04-23T07:06:16.989Z,94331.00
2023-04-23T07:07:17.007Z,94331.00
2023-04-23T07:08:17.007Z,94331.00
2023-04-23T07:09:16.959Z,94329.00
2023-04-23T07:10:17.990Z,94329.00
2023-04-23T07:11:16.989Z,94329.00
2023-04-23T07:12:17.005Z,94325.00
2023-04-23T07:13:16.932Z,94323.00
2023-04-23T07:14:16.950Z,94321.00
2023-04-23T07:15:16.970Z,94319.00
2023-04-23T07:16:17.070Z,94319.00
2023-04-23T07:17:16.933Z,94317.00
2023-04-23T07:18:16.941Z,94317.00
2023-04-23T07:19:16.942Z,94319.00
2023-04-23T07:20:16.900Z,94317.00
2023-04-23T07:21:16.924Z,94315.00
2023-04-23T07:22:16.912Z,94315.00
2023-04-23T07:23:16.902Z,94313.00
2023-04-23T07:24:16.923Z,94311.00
2023-04-23T07:25:16.880Z,94309.00
2023-04-23T07:26:16.993Z,94307.00
2023-04-23T07:27:16.889Z,94305.00
2023-04-23T07:28:16.856Z,94302.00
2023-04-23T07:29:16.856Z,94300.00
2023-04-23T07:30:16.862Z,94302.00
2023-04-23T07:31:16.826Z,94302.00
2023-04-23T07:32:16.885Z,94300.00
2023-04-23T07:33:16.831Z,94300.00
2023-04-23T07:34:16.892Z,94303.00
2023-04-23T07:35:16.795Z,94302.00
2023-04-23T07:36:17.252Z,94302.00
2023-04-23T07:37:16.809Z,94302.00
2023-04-23T07:38:16.809Z,94303.00
2023-04-23T07:39:16.837Z,94300.00
2023-04-23T07:40:16.787Z,94298.00
2023-04-23T07:41:16.796Z,94300.00
2023-04-23T07:42:16.813Z,94298.00
2023-04-23T07:43:16.750Z,94294.00
2023-04-23T07:44:16.741Z,94296.00
2023-04-23T07:45:16.770Z,94292.00
2023-04-23T07:46:16.789Z,94296.00
2023-04-23T07:47:16.723Z,94294.00
2023-04-23T07:48:16.740Z,94296.00
2023-04-23T07:49:16.755Z,94296.00
2023-04-23T07:50:16.694Z,94298.00
2023-04-23T07:51:16.693Z,94296.00
2023-04-23T07:52:16.708Z,94294.00
2023-04-23T07:53:16.659Z,94294.00
2023-04-23T07:54:16.671Z,94296.00
2023-04-23T07:55:16.667Z,94294.00
2023-04-23T07:56:16.685Z,94294.00
2023-04-23T07:57:16.648Z,94292.00
2023-04-23T07:58:16.666Z,94292.00
2023-04-23T07:59:16.886Z,94290.00
2023-04-23T08:00:16.638Z,94290.00
2023-04-23T08:01:16.624Z,94292.00
2023-04-23T08:02:16.688Z,94290.00
2023-04-23T08:03:16.676Z,94292.00
2023-04-23T08:04:16.827Z,94288.00
2023-04-23T08:05:16.611Z,94288.00
2023-04-23T08:06:16.616Z,94284.00
2023-04-23T08:07:16.607Z,94284.00
2023-04-23T08:08:16.560Z,94282.00
2023-04-23T08:09:16.561Z,94280.00
2023-04-23T08:10:16.584Z,94278.00
2023-04-23T08:11:16.596Z,94278.00
2023-04-23T08:12:16.583Z,94272.00
2023-04-23T08:13:16.547Z,94272.00
2023-04-23T08:14:16.541Z,94270.00
2023-04-23T08:15:16.503Z,94268.00
2023-04-23T08:16:16.569Z,94268.00
2023-04-23T08:17:16.527Z,94264.00
2023-04-23T08:18:16.531Z,94266.00
2023-04-23T08:19:16.527Z,94264.00
2023-04-23T08:20:16.469Z,94262.00
2023-04-23T08:21:16.481Z,94264.00
2023-04-23T08:22:16.509Z,94260.00
2023-04-23T08:23:17.474Z,94260.00
2023-04-23T08:24:16.466Z,94258.00
2023-04-23T08:25:16.471Z,94258.00
2023-04-23T08:26:16.472Z,94256.00
2023-04-23T08:27:16.478Z,94256.00
2023-04-23T08:28:16.445Z,94255.00
2023-04-23T08:29:16.441Z,94251.00
2023-04-23T08:30:16.503Z,94255.00
2023-04-23T08:31:25.737Z,94251.00
2023-04-23T08:32:17.493Z,94249.00
2023-04-23T08:33:16.473Z,94247.00
2023-04-23T08:34:16.467Z,94247.00
2023-04-23T08:35:16.473Z,94245.00
2023-04-23T08:36:16.576Z,94243.00
2023-04-23T08:37:27.296Z,94241.00
2023-04-23T08:38:17.474Z,94239.00
2023-04-23T08:39:16.454Z,94239.00
2023-04-23T08:40:16.419Z,94241.00
2023-04-23T08:41:16.410Z,94235.00
2023-04-23T08:42:16.422Z,94237.00
2023-04-23T08:43:16.408Z,94235.00
2023-04-23T08:44:16.391Z,94233.00
2023-04-23T08:45:16.361Z,94237.00
2023-04-23T08:46:16.441Z,94235.00
2023-04-23T08:47:16.413Z,94235.00
2023-04-23T08:48:16.420Z,94237.00
2023-04-23T08:49:16.355Z,94235.00
2023-04-23T08:50:16.376Z,94235.00
2023-04-23T08:51:16.368Z,94233.00
2023-04-23T08:52:16.437Z,94231.00
2023-04-23T08:53:16.691Z,94229.00
2023-04-23T08:54:16.495Z,94229.00
2023-04-23T08:55:16.523Z,94227.00
2023-04-23T08:56:16.640Z,94227.00
2023-04-23T08:57:16.683Z,94223.00
2023-04-23T08:58:16.730Z,94221.00
2023-04-23T08:59:16.740Z,94221.00
2023-04-23T09:00:16.810Z,94219.00
2023-04-23T09:01:17.376Z,94221.00
2023-04-23T09:02:17.048Z,94217.00
2023-04-23T09:03:17.157Z,94215.00
2023-04-23T09:04:17.056Z,94221.00
2023-04-23T09:05:17.171Z,94219.00
2023-04-23T09:06:17.188Z,94219.00
2023-04-23T09:07:17.316Z,94215.00
2023-04-23T09:08:17.322Z,94213.00
2023-04-23T09:09:17.423Z,94213.00
2023-04-23T09:10:18.785Z,94211.00
2023-04-23T09:11:17.512Z,94208.00
2023-04-23T09:12:17.661Z,94206.00
2023-04-23T09:13:17.651Z,94204.00
2023-04-23T09:14:17.672Z,94202.00
2023-04-23T09:15:17.777Z,94204.00
2023-04-23T09:16:17.853Z,94202.00
2023-04-23T09:17:21.122Z,94206.00
2023-04-23T09:18:17.916Z,94200.00
2023-04-23T09:19:17.868Z,94200.00
2023-04-23T09:20:17.835Z,94200.00
2023-04-23T09:21:17.878Z,94200.00
2023-04-23T09:22:17.881Z,94194.00
2023-04-23T09:23:17.831Z,94194.00
2023-04-23T09:24:17.885Z,94192.00
2023-04-23T09:25:18.151Z,94190.00
2023-04-23T09:26:17.807Z,94190.00
2023-04-23T09:27:17.810Z,94188.00
2023-04-23T09:28:17.814Z,94184.00
2023-04-23T09:29:17.769Z,94182.00
2023-04-23T09:30:17.761Z,94180.00
2023-04-23T09:31:17.770Z,94178.00
2023-04-23T09:32:17.933Z,94178.00
2023-04-23T09:33:17.797Z,94176.00
2023-04-23T09:34:17.750Z,94174.00
2023-04-23T09:35:17.804Z,94176.00
2023-04-23T09:36:17.764Z,94172.00
2023-04-23T09:37:17.715Z,94174.00
2023-04-23T09:38:17.760Z,94168.00
2023-04-23T09:39:17.706Z,94172.00
2023-04-23T09:40:17.692Z,94170.00
2023-04-23T09:41:17.694Z,94172.00
2023-04-23T09:42:17.706Z,94174.00
2023-04-23T09:43:17.717Z,94172.00
2023-04-23T09:44:17.674Z,94166.00
2023-04-23T09:45:17.676Z,94166.00
2023-04-23T09:46:17.734Z,94164.00
2023-04-23T09:47:17.634Z,94158.00
2023-04-23T09:48:17.608Z,94158.00
2023-04-23T09:49:17.645Z,94160.00
2023-04-23T09:50:17.617Z,94158.00
2023-04-23T09:51:17.662Z,94156.00
2023-04-23T09:52:17.609Z,94156.00
2023-04-23T09:53:17.616Z,94154.00
2023-04-23T09:54:17.633Z,94154.00
2023-04-23T09:55:17.713Z,94153.00
2023-04-23T09:56:17.697Z,94154.00
2023-04-23T09:57:17.752Z,94154.00
2023-04-23T09:58:17.811Z,94153.00
2023-04-23T09:59:17.860Z,94147.00
2023-04-23T10:00:17.987Z,94147.00
2023-04-23T10:01:17.992Z,94147.00
2023-04-23T10:02:18.092Z,94145.00
2023-04-23T10:03:18.061Z,94145.00
2023-04-23T10:04:18.095Z,94143.00
2023-04-23T10:05:24.267Z,94139.00
2023-04-23T10:06:39.553Z,94139.00
2023-04-23T10:07:20.461Z,94139.00
2023-04-23T10:08:18.245Z,94139.00
2023-04-23T10:09:18.236Z,94137.00
2023-04-23T10:10:18.346Z,94137.00
2023-04-23T10:11:20.890Z,94135.00
2023-04-23T10:12:36.681Z,94133.00
2023-04-23T10:13:20.840Z,94133.00
2023-04-23T10:14:18.260Z,94131.00
2023-04-23T10:15:18.269Z,94133.00
2023-04-23T10:16:23.074Z,94131.00
2023-04-23T10:17:19.237Z,94133.00
2023-04-23T10:18:18.257Z,94123.00
2023-04-23T10:19:18.268Z,94131.00
2023-04-23T10:20:18.297Z,94121.00
2023-04-23T10:21:18.278Z,94119.00
2023-04-23T10:22:19.330Z,94117.00
2023-04-23T10:23:18.239Z,94115.00
2023-04-23T10:24:18.234Z,94115.00
2023-04-23T10:25:18.195Z,94113.00
2023-04-23T10:26:18.200Z,94111.00
2023-04-23T10:27:32.844Z,94111.00
2023-04-23T10:28:19.174Z,94109.00
2023-04-23T10:29:18.165Z,94108.00
2023-04-23T10:30:18.166Z,94106.00
2023-04-23T10:31:18.209Z,94100.00
2023-04-23T10:32:18.141Z,94102.00
2023-04-23T10:33:28.960Z,94094.00
2023-04-23T10:34:19.292Z,94094.00
2023-04-23T10:35:18.164Z,94092.00
2023-04-23T10:36:18.161Z,94088.00
2023-04-23T10:37:18.121Z,94088.00
2023-04-23T10:38:18.118Z,94088.00
2023-04-23T10:39:23.990Z,94086.00
2023-04-23T10:40:19.092Z,94084.00
2023-04-23T10:41:19.608Z,94084.00
2023-04-23T10:42:18.223Z,94086.00
2023-04-23T10:43:18.144Z,94082.00
2023-04-23T10:44:26.679Z,94082.00
2023-04-23T10:45:24.153Z,94078.00
2023-04-23T10:46:19.149Z,94078.00
2023-04-23T10:47:18.156Z,94076.00
2023-04-23T10:48:18.193Z,94076.00
2023-04-23T10:49:18.080Z,94072.00
2023-04-23T10:50:18.103Z,94072.00
2023-04-23T10:52:02.409Z,94066.00
2023-04-23T10:52:21.088Z,94066.00
2023-04-23T10:53:18.085Z,94062.00
2023-04-23T10:54:18.108Z,94059.00
2023-04-23T10:55:18.154Z,94055.00
2023-04-23T10:56:18.105Z,94051.00
2023-04-23T10:57:18.056Z,94049.00
2023-04-23T10:58:18.048Z,94051.00
2023-04-23T10:59:18.023Z,94047.00
2023-04-23T11:00:18.024Z,94045.00
2023-04-23T11:01:18.062Z,94043.00
2023-04-23T11:02:18.225Z,94043.00
2023-04-23T11:03:18.157Z,94043.00
2023-04-23T11:04:18.135Z,94041.00
2023-04-23T11:05:17.989Z,94039.00
2023-04-23T11:06:17.968Z,94035.00
2023-04-23T11:07:17.926Z,94037.00
2023-04-23T11:08:19.880Z,94033.00
2023-04-23T11:09:17.983Z,94031.00
2023-04-23T11:10:17.933Z,94029.00
2023-04-23T11:11:17.945Z,94027.00
2023-04-23T11:12:17.953Z,94025.00
2023-04-23T11:13:17.939Z,94023.00
2023-04-23T11:14:17.910Z,94021.00
2023-04-23T11:15:17.931Z,94019.00
2023-04-23T11:16:17.945Z,94017.00
2023-04-23T11:17:17.926Z,94019.00
2023-04-23T11:18:17.898Z,94019.00
2023-04-23T11:19:20.436Z,94017.00
2023-04-23T11:20:17.885Z,94017.00
2023-04-23T11:21:17.855Z,94017.00
2023-04-23T11:22:17.871Z,94014.00
2023-04-23T11:23:17.881Z,94014.00
2023-04-23T11:24:17.813Z,94008.00
2023-04-23T11:25:17.831Z,94006.00
2023-04-23T11:26:17.822Z,94004.00
2023-04-23T11:27:17.844Z,94004.00
2023-04-23T11:28:17.827Z,94000.00
2023-04-23T11:29:17.819Z,94002.00
2023-04-23T11:30:17.821Z,93998.00
2023-04-23T11:31:17.780Z,93998.00
2023-04-23T11:32:17.928Z,93996.00
2023-04-23T11:33:17.899Z,93996.00
2023-04-23T11:34:17.926Z,93996.00
2023-04-23T11:35:17.787Z,93988.00
2023-04-23T11:36:17.764Z,93988.00
2023-04-23T11:37:17.779Z,93988.00
2023-04-23T11:38:17.769Z,93988.00
2023-04-23T11:39:17.718Z,93982.00
2023-04-23T11:40:17.730Z,93982.00
2023-04-23T11:41:18.317Z,93984.00
2023-04-23T11:42:18.398Z,93978.00
2023-04-23T11:43:17.654Z,93976.00
2023-04-23T11:44:17.753Z,93974.00